Terminal Aerodrome Forecast
Issued by NWS

Home | Current Version | Previous Version | Text Only | Print | Product List | Glossary On
Versions: 1 2 3 4 5 6 7 8 9 10 11 12 13 14 15 16 17 18 19 20 21 22 23 24 25 26 27 28
000
FTUS43 KDTX 032320
TAFYIP
TAF
KYIP 032320Z 0400/0424 20007KT P6SM SCT080 BKN150
     FM041000 21010KT P6SM BKN080 OVC120
     FM041500 22012G20KT P6SM BKN050 OVC100
      TEMPO 0420/0424 3SM -SHRA OVC025=

USA.gov is the U.S. government's official web portal to all federal, state and local government web resources and services.